createdAt,value
2023-05-20T00:03:00.544Z,24.78
2023-05-20T00:08:06.322Z,24.74
2023-05-20T00:13:10.040Z,24.66
2023-05-20T00:18:14.596Z,24.44
2023-05-20T00:23:22.923Z,24.44
2023-05-20T00:28:26.544Z,24.20
2023-05-20T00:33:30.199Z,24.13
2023-05-20T00:38:35.766Z,23.95
2023-05-20T00:43:39.447Z,23.90
2023-05-20T00:48:44.973Z,23.71
2023-05-20T00:53:50.589Z,23.26
2023-05-20T00:58:54.397Z,22.64
2023-05-20T01:03:58.126Z,22.42
2023-05-20T01:09:03.487Z,22.24
2023-05-20T01:14:09.741Z,21.99
2023-05-20T01:19:23.038Z,21.78
2023-05-20T01:24:28.485Z,21.81
2023-05-20T01:29:32.184Z,21.85
2023-05-20T01:34:37.918Z,21.85
2023-05-20T01:39:46.231Z,21.91
2023-05-20T01:44:50.044Z,21.65
2023-05-20T01:49:53.687Z,21.44
2023-05-20T01:54:59.164Z,21.33
2023-05-20T02:00:02.848Z,20.83
2023-05-20T02:05:07.087Z,20.79
2023-05-20T02:10:12.903Z,20.65
2023-05-20T02:15:16.709Z,20.51
2023-05-20T02:20:20.405Z,20.23
2023-05-20T02:25:25.740Z,19.64
2023-05-20T02:30:28.634Z,19.47
2023-05-20T02:35:32.435Z,19.31
2023-05-20T02:40:37.949Z,19.22
2023-05-20T02:45:42.235Z,19.07
2023-05-20T02:50:47.334Z,18.73
2023-05-20T02:55:52.720Z,18.49
2023-05-20T03:00:55.693Z,18.40
2023-05-20T03:05:59.409Z,18.10
2023-05-20T03:11:05.526Z,17.81
2023-05-20T03:16:10.406Z,17.67
2023-05-20T03:21:14.102Z,17.58
2023-05-20T03:26:19.531Z,17.26
2023-05-20T03:31:23.206Z,17.16
2023-05-20T03:36:27.518Z,17.12
2023-05-20T03:41:33.258Z,17.09
2023-05-20T03:46:36.904Z,17.14
2023-05-20T03:51:40.601Z,16.99
2023-05-20T03:56:45.915Z,17.02
2023-05-20T04:01:49.610Z,16.90
2023-05-20T04:06:53.258Z,16.71
2023-05-20T04:11:58.620Z,16.66
2023-05-20T04:17:03.142Z,16.57
2023-05-20T04:22:07.080Z,16.42
2023-05-20T04:27:12.365Z,16.33
2023-05-20T04:32:18.450Z,16.31
2023-05-20T04:37:22.242Z,16.36
2023-05-20T04:42:28.646Z,16.62
2023-05-20T04:47:32.393Z,16.70
2023-05-20T04:52:36.084Z,16.57
2023-05-20T04:57:41.565Z,16.43
2023-05-20T05:02:45.978Z,16.45
2023-05-20T05:07:49.705Z,16.44
2023-05-20T05:12:55.019Z,16.15
2023-05-20T05:17:59.357Z,15.85
2023-05-20T05:23:03.018Z,15.73
2023-05-20T05:28:08.363Z,15.70
2023-05-20T05:33:12.128Z,15.71
2023-05-20T05:38:15.862Z,15.45
2023-05-20T05:43:21.228Z,15.36
2023-05-20T05:48:24.942Z,15.27
2023-05-20T05:53:28.848Z,15.35
2023-05-20T05:58:34.189Z,15.22
2023-05-20T06:03:38.065Z,15.28
2023-05-20T06:08:41.772Z,15.13
2023-05-20T06:13:48.057Z,14.89
2023-05-20T06:18:51.750Z,14.88
2023-05-20T06:23:55.404Z,14.91
2023-05-20T06:29:00.738Z,14.82
2023-05-20T06:34:04.413Z,14.72
2023-05-20T06:39:08.084Z,14.73
2023-05-20T06:44:13.386Z,14.58
2023-05-20T06:49:17.070Z,14.53
2023-05-20T06:54:20.731Z,14.45
2023-05-20T06:59:26.217Z,14.41
2023-05-20T07:04:29.978Z,14.12
2023-05-20T07:09:33.633Z,14.04
2023-05-20T07:14:40.002Z,13.88
2023-05-20T07:19:43.652Z,14.00
2023-05-20T07:24:49.447Z,14.09
2023-05-20T07:29:55.504Z,14.04
2023-05-20T07:34:59.155Z,14.02
2023-05-20T07:40:03.099Z,13.86
2023-05-20T07:45:09.698Z,13.83
2023-05-20T07:50:13.426Z,13.82
2023-05-20T07:55:17.197Z,13.50
2023-05-20T08:00:23.089Z,13.36
2023-05-20T08:05:26.071Z,13.48
2023-05-20T08:10:29.772Z,13.42
2023-05-20T08:15:36.457Z,13.47
2023-05-20T08:20:40.179Z,13.40
2023-05-20T08:25:43.869Z,13.45
2023-05-20T08:30:49.247Z,13.31
2023-05-20T08:35:52.997Z,13.35
2023-05-20T08:40:58.009Z,13.33
2023-05-20T08:46:03.948Z,13.27
2023-05-20T08:51:10.941Z,13.36
2023-05-20T08:56:14.879Z,13.33
2023-05-20T09:01:20.381Z,13.20
2023-05-20T09:06:24.080Z,13.12
2023-05-20T09:11:27.807Z,13.08
2023-05-20T09:16:33.263Z,13.00
2023-05-20T09:21:37.027Z,12.79
2023-05-20T09:26:40.682Z,12.66
2023-05-20T09:31:46.093Z,12.70
2023-05-20T09:36:52.123Z,12.74
2023-05-20T09:42:03.747Z,12.91
2023-05-20T09:47:10.512Z,13.08
2023-05-20T09:52:16.091Z,13.16
2023-05-20T09:57:19.928Z,13.21
2023-05-20T10:02:25.345Z,13.18
2023-05-20T10:08:09.748Z,13.19
2023-05-20T10:13:24.531Z,13.22
2023-05-20T10:18:43.284Z,13.20
2023-05-20T10:23:47.440Z,13.11
2023-05-20T10:28:51.208Z,13.14
2023-05-20T10:33:59.692Z,13.22
2023-05-20T10:39:04.919Z,13.25
2023-05-20T10:44:08.605Z,13.28
2023-05-20T10:49:25.239Z,13.36
2023-05-20T10:54:36.056Z,13.35
2023-05-20T10:59:39.898Z,13.34
2023-05-20T11:04:45.939Z,13.33
2023-05-20T11:09:50.655Z,13.30
2023-05-20T11:14:54.678Z,13.15
2023-05-20T11:20:00.194Z,12.95
2023-05-20T11:25:07.139Z,12.79
2023-05-20T11:30:12.673Z,12.72
2023-05-20T11:35:25.823Z,12.69
2023-05-20T11:40:38.947Z,12.72
2023-05-20T11:45:47.505Z,12.82
2023-05-20T11:50:55.609Z,12.93
2023-05-20T11:56:00.873Z,12.97
2023-05-20T12:01:13.998Z,13.07
2023-05-20T12:06:26.887Z,13.06
2023-05-20T12:11:30.547Z,13.08
2023-05-20T12:16:35.436Z,13.14
2023-05-20T12:21:40.810Z,13.16
2023-05-20T12:26:44.508Z,13.25
2023-05-20T12:31:48.566Z,13.18
2023-05-20T12:36:53.999Z,13.10
2023-05-20T12:41:57.702Z,13.07
2023-05-20T12:47:01.636Z,13.15
2023-05-20T12:52:11.894Z,13.15
2023-05-20T12:57:23.132Z,13.07
2023-05-20T13:02:26.857Z,13.05
2023-05-20T13:07:32.298Z,13.11
2023-05-20T13:12:36.057Z,13.10
2023-05-20T13:17:39.858Z,13.20
2023-05-20T13:22:45.161Z,13.35
2023-05-20T13:27:48.860Z,13.30
2023-05-20T13:32:52.971Z,13.27
2023-05-20T13:37:59.291Z,13.27
2023-05-20T13:43:02.950Z,13.24
2023-05-20T13:48:07.082Z,13.24
2023-05-20T13:53:12.430Z,13.24
2023-05-20T13:58:16.135Z,13.36
2023-05-20T14:03:19.986Z,13.54
2023-05-20T14:08:25.421Z,13.75
2023-05-20T14:13:29.085Z,13.92
2023-05-20T14:18:32.775Z,14.09
2023-05-20T14:23:38.230Z,14.42
2023-05-20T14:28:41.859Z,14.61
2023-05-20T14:33:45.526Z,14.88
2023-05-20T14:38:50.895Z,15.44
2023-05-20T14:43:54.535Z,15.82
2023-05-20T14:48:58.864Z,15.82
2023-05-20T14:54:04.231Z,15.85
2023-05-20T14:59:08.063Z,15.93
2023-05-20T15:04:11.838Z,15.93
2023-05-20T15:09:17.225Z,16.08
2023-05-20T15:14:20.970Z,16.04
2023-05-20T15:19:24.678Z,15.83
2023-05-20T15:24:30.137Z,16.21
2023-05-20T15:29:33.811Z,16.42
2023-05-20T15:34:37.507Z,17.01
2023-05-20T15:39:42.818Z,17.63
2023-05-20T15:44:46.759Z,17.95
2023-05-20T15:49:50.448Z,18.81
2023-05-20T15:54:55.957Z,19.37
2023-05-20T15:59:59.544Z,19.74
2023-05-20T16:05:03.210Z,19.60
2023-05-20T16:10:09.930Z,19.99
2023-05-20T16:15:14.038Z,20.45
2023-05-20T16:20:17.662Z,20.53
2023-05-20T16:25:23.053Z,20.59
2023-05-20T16:30:26.855Z,20.51
2023-05-20T16:35:30.507Z,21.13
2023-05-20T16:40:36.814Z,21.74
2023-05-20T16:45:40.503Z,22.39
2023-05-20T16:50:44.228Z,22.58
2023-05-20T16:55:49.573Z,22.70
2023-05-20T17:00:52.723Z,22.63
2023-05-20T17:05:56.573Z,22.62
2023-05-20T17:11:03.581Z,23.28
2023-05-20T17:16:09.881Z,23.94
2023-05-20T17:21:15.534Z,24.25
2023-05-20T17:26:21.066Z,24.34
2023-05-20T17:31:24.683Z,24.79
2023-05-20T17:36:29.292Z,24.55
2023-05-20T17:41:34.574Z,24.83
2023-05-20T17:46:38.394Z,25.30
2023-05-20T17:51:42.144Z,25.45
2023-05-20T17:56:48.920Z,25.44
2023-05-20T18:01:52.815Z,25.16
2023-05-20T18:06:56.570Z,24.01
2023-05-20T18:12:02.941Z,24.18
2023-05-20T18:17:06.781Z,24.46
2023-05-20T18:22:10.442Z,24.33
2023-05-20T18:27:15.749Z,24.08
2023-05-20T18:32:19.604Z,23.90
2023-05-20T18:37:23.264Z,23.82
2023-05-20T18:42:28.735Z,23.77
2023-05-20T18:47:32.933Z,23.51
2023-05-20T18:52:36.679Z,23.65
2023-05-20T18:57:41.998Z,23.70
2023-05-20T19:02:45.979Z,23.75
2023-05-20T19:07:49.649Z,24.20
2023-05-20T19:12:54.947Z,24.28
2023-05-20T19:17:58.704Z,23.82
2023-05-20T19:23:02.390Z,24.19
2023-05-20T19:28:07.983Z,24.04
2023-05-20T19:33:11.636Z,24.56
2023-05-20T19:38:15.449Z,25.06
2023-05-20T19:43:20.753Z,25.73
2023-05-20T19:48:24.393Z,24.87
2023-05-20T19:53:28.044Z,24.76
2023-05-20T19:58:34.294Z,24.67
2023-05-20T20:03:37.966Z,24.65
2023-05-20T20:08:41.697Z,25.01
2023-05-20T20:13:47.031Z,24.99
2023-05-20T20:18:50.686Z,24.87
2023-05-20T20:23:54.380Z,25.17
2023-05-20T20:29:00.608Z,25.69
2023-05-20T20:34:04.244Z,25.96
2023-05-20T20:39:07.964Z,25.49
2023-05-20T20:44:13.419Z,25.39
2023-05-20T20:49:17.167Z,25.43
2023-05-20T20:54:20.886Z,25.41
2023-05-20T20:59:26.402Z,25.20
2023-05-20T21:04:30.395Z,25.59
2023-05-20T21:09:34.091Z,25.93
2023-05-20T21:14:39.424Z,25.48
2023-05-20T21:19:43.097Z,25.70
2023-05-20T21:24:46.754Z,25.58
2023-05-20T21:29:52.092Z,25.63
2023-05-20T21:34:56.856Z,25.51
2023-05-20T21:40:02.045Z,25.15
2023-05-20T21:45:08.738Z,25.15
2023-05-20T21:50:13.268Z,25.14
2023-05-20T21:55:17.072Z,25.12
2023-05-20T22:00:22.405Z,25.22
2023-05-20T22:05:28.644Z,25.18
2023-05-20T22:10:32.330Z,25.03
2023-05-20T22:15:37.872Z,24.92
2023-05-20T22:20:41.745Z,24.87
2023-05-20T22:25:45.519Z,24.84
2023-05-20T22:30:50.975Z,24.60
2023-05-20T22:35:54.939Z,24.63
2023-05-20T22:40:58.680Z,24.64
2023-05-20T22:46:04.251Z,24.37
2023-05-20T22:51:08.088Z,24.34
2023-05-20T22:56:11.717Z,24.29
2023-05-20T23:01:17.111Z,24.39
2023-05-20T23:06:20.811Z,24.29
2023-05-20T23:11:24.498Z,24.17
2023-05-20T23:16:29.918Z,23.87
2023-05-20T23:21:33.691Z,23.69
2023-05-20T23:26:37.349Z,23.48
2023-05-20T23:31:42.690Z,23.49
2023-05-20T23:36:46.330Z,23.45
2023-05-20T23:41:49.919Z,23.40
2023-05-20T23:46:55.263Z,23.33
2023-05-20T23:51:58.940Z,23.25
2023-05-20T23:57:02.675Z,22.94
